createdAt,value
2023-05-06T00:00:20.008Z,37.09
2023-05-06T00:02:47.085Z,37.09
2023-05-06T00:05:14.258Z,37.12
2023-05-06T00:07:42.037Z,37.12
2023-05-06T00:10:08.992Z,37.14
2023-05-06T00:12:35.718Z,37.19
2023-05-06T00:15:04.977Z,37.18
2023-05-06T00:17:31.820Z,37.21
2023-05-06T00:19:58.718Z,37.19
2023-05-06T00:22:25.376Z,37.20
2023-05-06T00:24:52.042Z,37.21
2023-05-06T00:27:18.750Z,37.24
2023-05-06T00:29:46.046Z,37.26
2023-05-06T00:32:12.757Z,37.27
2023-05-06T00:34:39.387Z,37.23
2023-05-06T00:37:08.832Z,37.27
2023-05-06T00:39:35.602Z,37.27
2023-05-06T00:42:02.472Z,37.27
2023-05-06T00:44:29.931Z,37.27
2023-05-06T00:46:57.247Z,37.28
2023-05-06T00:49:23.896Z,37.29
2023-05-06T00:51:53.561Z,37.26
2023-05-06T00:54:20.498Z,37.27
2023-05-06T00:56:47.174Z,37.28
2023-05-06T00:59:13.800Z,37.29
2023-05-06T01:01:40.668Z,37.28
2023-05-06T01:04:08.818Z,37.28
2023-05-06T01:07:03.053Z,37.30
2023-05-06T01:09:37.173Z,37.27
2023-05-06T01:12:34.330Z,37.31
2023-05-06T01:15:33.558Z,37.35
2023-05-06T01:18:01.512Z,37.41
2023-05-06T01:20:28.210Z,37.39
2023-05-06T01:22:54.838Z,37.40
2023-05-06T01:25:22.185Z,37.45
2023-05-06T01:27:49.438Z,37.42
2023-05-06T01:30:19.266Z,37.44
2023-05-06T01:32:54.869Z,37.43
2023-05-06T01:35:32.931Z,37.47
2023-05-06T01:38:09.759Z,37.46
2023-05-06T01:40:36.447Z,37.51
2023-05-06T01:43:05.161Z,37.52
2023-05-06T01:45:31.999Z,37.52
2023-05-06T01:47:58.653Z,37.55
2023-05-06T01:50:31.289Z,37.55
2023-05-06T01:53:01.968Z,37.55
2023-05-06T01:55:28.773Z,37.54
2023-05-06T01:57:56.770Z,37.57
2023-05-06T02:00:25.056Z,37.57
2023-05-06T02:02:51.915Z,37.57
2023-05-06T02:05:18.882Z,37.57
2023-05-06T02:07:45.912Z,37.53
2023-05-06T02:10:12.494Z,37.56
2023-05-06T02:12:39.253Z,37.57
2023-05-06T02:15:06.421Z,37.58
2023-05-06T02:17:35.822Z,37.55
2023-05-06T02:20:04.628Z,37.57
2023-05-06T02:22:31.206Z,37.58
2023-05-06T02:25:00.897Z,37.59
2023-05-06T02:27:27.770Z,37.59
2023-05-06T02:29:54.369Z,37.62
2023-05-06T02:32:21.124Z,37.61
2023-05-06T02:34:47.823Z,37.59
2023-05-06T02:37:14.451Z,37.61
2023-05-06T02:39:41.033Z,37.62
2023-05-06T02:42:07.843Z,37.60
2023-05-06T02:44:34.462Z,37.61
2023-05-06T02:47:03.490Z,37.63
2023-05-06T02:49:30.077Z,37.65
2023-05-06T02:51:57.134Z,37.65
2023-05-06T02:54:23.790Z,37.64
2023-05-06T02:56:50.453Z,37.66
2023-05-06T02:59:17.066Z,37.64
2023-05-06T03:01:43.726Z,37.65
2023-05-06T03:04:10.473Z,37.65
2023-05-06T03:06:37.118Z,37.67
2023-05-06T03:09:05.063Z,37.66
2023-05-06T03:11:32.612Z,37.67
2023-05-06T03:13:59.526Z,37.69
2023-05-06T03:16:26.614Z,37.69
2023-05-06T03:18:55.355Z,37.73
2023-05-06T03:21:21.983Z,37.72
2023-05-06T03:23:48.546Z,37.68
2023-05-06T03:26:15.271Z,37.71
2023-05-06T03:28:43.005Z,37.71
2023-05-06T03:31:09.781Z,37.70
2023-05-06T03:33:36.689Z,37.72
2023-05-06T03:36:03.881Z,37.72
2023-05-06T03:38:30.497Z,37.76
2023-05-06T03:40:57.107Z,37.75
2023-05-06T03:43:23.704Z,37.75
2023-05-06T03:45:50.394Z,37.77
2023-05-06T03:48:17.008Z,37.76
2023-05-06T03:50:43.710Z,37.77
2023-05-06T03:53:10.382Z,37.79
2023-05-06T03:55:36.941Z,37.78
2023-05-06T03:58:03.538Z,37.77
2023-05-06T04:00:30.106Z,37.78
2023-05-06T04:02:56.836Z,37.78
2023-05-06T04:05:23.574Z,37.76
2023-05-06T04:07:50.275Z,37.81
2023-05-06T04:10:16.952Z,37.79
2023-05-06T04:12:43.591Z,37.79
2023-05-06T04:15:10.880Z,37.78
2023-05-06T04:17:37.748Z,37.82
2023-05-06T04:20:06.899Z,37.84
2023-05-06T04:22:33.500Z,37.85
2023-05-06T04:25:02.978Z,37.84
2023-05-06T04:27:31.193Z,37.85
2023-05-06T04:29:59.665Z,37.84
2023-05-06T04:32:26.281Z,37.81
2023-05-06T04:34:56.937Z,37.80
2023-05-06T04:37:23.534Z,37.80
2023-05-06T04:39:50.228Z,37.85
2023-05-06T04:42:17.013Z,37.86
2023-05-06T04:44:43.597Z,37.86
2023-05-06T04:47:10.398Z,37.88
2023-05-06T04:49:37.019Z,37.88
2023-05-06T04:52:06.760Z,37.89
2023-05-06T04:54:33.401Z,37.92
2023-05-06T04:57:00.073Z,37.95
2023-05-06T04:59:26.728Z,37.99
2023-05-06T05:01:53.795Z,37.97
2023-05-06T05:04:20.418Z,38.02
2023-05-06T05:06:47.044Z,37.98
2023-05-06T05:09:13.653Z,37.66
2023-05-06T05:11:40.309Z,37.29
2023-05-06T05:14:06.983Z,37.04
2023-05-06T05:16:33.670Z,36.83
2023-05-06T05:19:03.780Z,36.62
2023-05-06T05:21:30.772Z,36.39
2023-05-06T05:23:57.415Z,36.11
2023-05-06T05:26:24.084Z,35.80
2023-05-06T05:28:50.759Z,35.58
2023-05-06T05:31:17.369Z,35.46
2023-05-06T05:33:44.020Z,35.33
2023-05-06T05:36:12.501Z,35.28
2023-05-06T05:38:39.107Z,35.25
2023-05-06T05:41:05.757Z,35.23
2023-05-06T05:43:32.422Z,35.22
2023-05-06T05:45:59.069Z,35.20
2023-05-06T05:48:25.750Z,35.22
2023-05-06T05:50:52.388Z,35.23
2023-05-06T05:53:19.066Z,35.26
2023-05-06T05:55:48.341Z,35.24
2023-05-06T05:58:15.000Z,35.22
2023-05-06T06:00:41.869Z,35.27
2023-05-06T06:03:08.589Z,35.27
2023-05-06T06:05:35.377Z,35.28
2023-05-06T06:08:03.789Z,35.32
2023-05-06T06:10:30.772Z,35.28
2023-05-06T06:12:57.927Z,35.30
2023-05-06T06:15:24.621Z,35.34
2023-05-06T06:17:53.871Z,35.32
2023-05-06T06:20:20.739Z,35.29
2023-05-06T06:22:47.371Z,35.31
2023-05-06T06:25:14.101Z,35.35
2023-05-06T06:27:40.974Z,35.30
2023-05-06T06:30:08.297Z,35.32
2023-05-06T06:32:35.022Z,35.31
2023-05-06T06:35:01.647Z,35.31
2023-05-06T06:37:28.413Z,35.30
2023-05-06T06:39:55.219Z,35.33
2023-05-06T06:42:21.834Z,35.33
2023-05-06T06:44:48.412Z,35.33
2023-05-06T06:47:14.994Z,35.32
2023-05-06T06:49:41.594Z,35.37
2023-05-06T06:52:08.208Z,35.35
2023-05-06T06:54:39.141Z,35.37
2023-05-06T06:57:08.832Z,35.36
2023-05-06T06:59:35.695Z,35.33
2023-05-06T07:02:02.641Z,35.38
2023-05-06T07:04:31.902Z,35.40
2023-05-06T07:06:58.521Z,35.43
2023-05-06T07:09:25.168Z,35.46
2023-05-06T07:11:51.912Z,35.47
2023-05-06T07:14:18.719Z,35.50
2023-05-06T07:16:46.707Z,35.49
2023-05-06T07:19:14.305Z,35.52
2023-05-06T07:21:40.940Z,35.47
2023-05-06T07:24:08.172Z,35.52
2023-05-06T07:26:40.739Z,35.51
2023-05-06T07:29:07.482Z,35.47
2023-05-06T07:31:34.175Z,35.55
2023-05-06T07:34:00.975Z,35.55
2023-05-06T07:36:28.695Z,35.57
2023-05-06T07:38:55.583Z,35.54
2023-05-06T07:41:22.221Z,35.61
2023-05-06T07:43:48.837Z,35.60
2023-05-06T07:46:15.742Z,35.61
2023-05-06T07:48:47.248Z,35.62
2023-05-06T07:51:13.869Z,35.69
2023-05-06T07:53:40.568Z,35.68
2023-05-06T07:56:07.192Z,35.66
2023-05-06T07:58:33.811Z,35.71
2023-05-06T08:01:00.626Z,35.68
2023-05-06T08:03:27.409Z,35.73
2023-05-06T08:05:55.303Z,35.73
2023-05-06T08:08:23.015Z,35.73
2023-05-06T08:10:49.599Z,35.73
2023-05-06T08:13:16.282Z,35.73
2023-05-06T08:15:43.170Z,35.73
2023-05-06T08:18:20.917Z,35.79
2023-05-06T08:20:49.338Z,35.78
2023-05-06T08:23:16.053Z,35.80
2023-05-06T08:25:42.859Z,35.86
2023-05-06T08:31:34.609Z,35.87
2023-05-06T08:34:01.282Z,35.92
2023-05-06T08:36:27.889Z,35.88
2023-05-06T08:38:54.543Z,35.93
2023-05-06T08:41:21.689Z,35.97
2023-05-06T08:43:49.118Z,35.97
2023-05-06T08:46:15.961Z,36.03
2023-05-06T08:48:42.802Z,36.04
2023-05-06T08:51:09.446Z,36.04
2023-05-06T08:53:36.549Z,36.08
2023-05-06T08:56:04.602Z,36.11
2023-05-06T08:58:34.484Z,36.10
2023-05-06T09:01:01.725Z,36.18
2023-05-06T09:03:28.598Z,36.14
2023-05-06T09:05:56.812Z,36.19
2023-05-06T09:08:23.582Z,36.19
2023-05-06T09:10:50.280Z,36.20
2023-05-06T09:13:18.506Z,36.29
2023-05-06T09:15:49.684Z,36.28
2023-05-06T09:18:16.579Z,36.29
2023-05-06T09:20:45.061Z,36.36
2023-05-06T09:23:12.622Z,36.39
2023-05-06T09:25:39.425Z,36.46
2023-05-06T09:28:10.954Z,36.49
2023-05-06T09:30:41.828Z,36.53
2023-05-06T09:33:11.308Z,36.59
2023-05-06T09:35:42.169Z,36.60
2023-05-06T09:38:09.030Z,36.55
2023-05-06T09:40:36.353Z,36.59
2023-05-06T09:43:03.294Z,36.62
2023-05-06T09:45:30.004Z,36.67
2023-05-06T09:47:57.072Z,36.70
2023-05-06T09:50:24.010Z,36.75
2023-05-06T09:52:50.846Z,36.76
2023-05-06T09:55:19.075Z,36.76
2023-05-06T09:57:48.381Z,36.82
2023-05-06T10:00:15.989Z,36.81
2023-05-06T10:02:47.957Z,36.86
2023-05-06T10:05:15.133Z,36.91
2023-05-06T10:07:42.375Z,36.80
2023-05-06T10:10:11.041Z,36.90
2023-05-06T10:12:37.790Z,36.93
2023-05-06T10:15:05.391Z,36.94
2023-05-06T10:17:32.304Z,37.04
2023-05-06T10:19:59.580Z,37.08
2023-05-06T10:22:41.349Z,37.06
2023-05-06T10:25:17.211Z,37.08
2023-05-06T10:27:43.845Z,37.12
2023-05-06T10:30:11.341Z,37.11
2023-05-06T10:32:41.724Z,37.14
2023-05-06T10:35:41.208Z,37.19
2023-05-06T10:38:27.861Z,37.17
2023-05-06T10:40:54.833Z,37.18
2023-05-06T10:43:26.284Z,37.20
2023-05-06T10:45:59.599Z,37.22
2023-05-06T10:48:26.285Z,37.18
2023-05-06T10:51:15.821Z,37.25
2023-05-06T10:54:04.803Z,37.25
2023-05-06T10:56:35.183Z,37.26
2023-05-06T10:59:11.604Z,37.29
2023-05-06T11:01:42.588Z,37.36
2023-05-06T11:04:13.166Z,37.32
2023-05-06T11:06:42.054Z,37.31
2023-05-06T11:09:27.446Z,37.29
2023-05-06T11:12:03.944Z,37.31
2023-05-06T11:14:37.691Z,37.37
2023-05-06T11:17:30.307Z,37.38
2023-05-06T11:20:19.513Z,37.39
2023-05-06T11:22:46.326Z,37.35
2023-05-06T11:25:12.956Z,37.36
2023-05-06T11:27:39.740Z,37.39
2023-05-06T11:30:07.146Z,37.35
2023-05-06T11:32:33.773Z,37.32
2023-05-06T11:35:00.416Z,37.34
2023-05-06T11:37:27.939Z,37.35
2023-05-06T11:39:54.611Z,37.40
2023-05-06T11:42:27.984Z,37.36
2023-05-06T11:44:55.352Z,37.40
2023-05-06T11:47:25.059Z,37.40
2023-05-06T11:49:54.662Z,37.40
2023-05-06T11:52:21.335Z,37.43
2023-05-06T11:54:50.155Z,37.43
2023-05-06T11:57:16.882Z,37.37
2023-05-06T11:59:43.536Z,37.45
2023-05-06T12:02:12.603Z,37.45
2023-05-06T12:04:43.517Z,37.38
2023-05-06T12:07:11.644Z,37.45
2023-05-06T12:09:39.432Z,37.45
2023-05-06T12:12:07.251Z,37.41
2023-05-06T12:14:33.990Z,37.43
2023-05-06T12:17:00.773Z,37.43
2023-05-06T12:19:28.755Z,37.44
2023-05-06T12:21:55.766Z,37.42
2023-05-06T12:24:31.088Z,37.45
2023-05-06T12:26:57.742Z,37.43
2023-05-06T12:29:24.367Z,37.47
2023-05-06T12:31:58.436Z,37.61
2023-05-06T12:34:35.717Z,37.49
2023-05-06T12:37:02.344Z,37.49
2023-05-06T12:39:36.800Z,37.51
2023-05-06T12:42:03.541Z,37.53
2023-05-06T12:44:35.080Z,37.51
2023-05-06T12:47:03.132Z,37.50
2023-05-06T12:49:48.395Z,37.51
2023-05-06T12:52:15.818Z,37.50
2023-05-06T12:54:42.477Z,37.48
2023-05-06T12:57:09.256Z,37.47
2023-05-06T12:59:38.762Z,37.48
2023-05-06T13:02:05.800Z,37.48
2023-05-06T13:04:32.487Z,37.48
2023-05-06T13:06:59.101Z,37.48
2023-05-06T13:09:26.011Z,37.49
2023-05-06T13:11:52.912Z,37.51
2023-05-06T13:14:19.669Z,37.52
2023-05-06T13:16:46.683Z,37.52
2023-05-06T13:19:25.129Z,37.52
2023-05-06T13:22:00.629Z,37.52
2023-05-06T13:24:36.183Z,37.52
2023-05-06T13:27:02.857Z,37.52
2023-05-06T13:29:29.918Z,37.46
2023-05-06T13:31:56.966Z,37.52
2023-05-06T13:34:23.663Z,37.52
2023-05-06T13:36:50.878Z,37.51
2023-05-06T13:39:17.495Z,37.51
2023-05-06T13:41:46.643Z,37.53
2023-05-06T13:44:13.987Z,37.52
2023-05-06T13:46:40.801Z,37.48
2023-05-06T13:49:07.497Z,37.53
2023-05-06T13:51:34.690Z,37.50
2023-05-06T13:54:02.268Z,37.47
2023-05-06T13:56:28.866Z,37.47
2023-05-06T13:58:55.698Z,37.56
2023-05-06T14:01:22.929Z,37.55
2023-05-06T14:03:49.581Z,37.55
2023-05-06T14:06:16.484Z,37.54
2023-05-06T14:08:43.129Z,37.57
2023-05-06T14:11:12.769Z,37.57
2023-05-06T14:13:42.478Z,37.52
2023-05-06T14:16:09.171Z,37.55
2023-05-06T14:18:41.260Z,37.57
2023-05-06T14:21:07.826Z,37.60
2023-05-06T14:23:34.596Z,37.59
2023-05-06T14:26:01.300Z,37.59
2023-05-06T14:28:27.986Z,37.59
2023-05-06T14:30:54.621Z,37.64
2023-05-06T14:33:23.413Z,37.63
2023-05-06T14:35:52.545Z,37.63
2023-05-06T14:38:19.964Z,37.65
2023-05-06T14:40:46.665Z,37.65
2023-05-06T14:43:13.807Z,37.66
2023-05-06T14:45:40.551Z,37.66
2023-05-06T14:48:07.671Z,37.66
2023-05-06T14:50:34.590Z,37.67
2023-05-06T14:53:03.554Z,37.69
2023-05-06T14:55:30.675Z,37.69
2023-05-06T14:57:57.337Z,37.69
2023-05-06T15:00:24.085Z,37.72
2023-05-06T15:02:50.880Z,37.73
2023-05-06T15:05:17.802Z,37.74
2023-05-06T15:07:44.412Z,37.77
2023-05-06T15:10:13.684Z,37.80
2023-05-06T15:12:40.788Z,37.82
2023-05-06T15:15:08.329Z,37.85
2023-05-06T15:17:35.304Z,37.88
2023-05-06T15:20:02.188Z,37.90
2023-05-06T15:22:28.835Z,37.91
2023-05-06T15:24:55.531Z,37.91
2023-05-06T15:27:22.192Z,37.94
2023-05-06T15:29:49.026Z,37.96
2023-05-06T15:32:15.777Z,37.96
2023-05-06T15:34:42.453Z,37.98
2023-05-06T15:37:10.361Z,38.00
2023-05-06T15:39:39.776Z,38.01
2023-05-06T15:42:06.437Z,38.04
2023-05-06T15:44:33.923Z,38.05
2023-05-06T15:47:00.879Z,38.05
2023-05-06T15:49:48.792Z,38.08
2023-05-06T15:52:14.272Z,38.11
2023-05-06T15:54:41.159Z,38.14
2023-05-06T15:57:08.048Z,38.15
2023-05-06T15:59:34.800Z,38.15
2023-05-06T16:02:26.324Z,38.17
2023-05-06T16:04:48.292Z,38.19
2023-05-06T16:07:15.604Z,38.19
2023-05-06T16:09:42.931Z,38.20
2023-05-06T16:12:10.079Z,38.22
2023-05-06T16:14:36.695Z,38.25
2023-05-06T16:17:03.615Z,38.27
2023-05-06T16:19:34.968Z,38.28
2023-05-06T16:22:02.182Z,38.29
2023-05-06T16:24:28.920Z,38.33
2023-05-06T16:26:55.628Z,38.35
2023-05-06T16:29:22.285Z,38.36
2023-05-06T16:31:49.151Z,38.38
2023-05-06T16:34:15.969Z,38.38
2023-05-06T16:36:43.637Z,38.42
2023-05-06T16:39:10.300Z,38.44
2023-05-06T16:41:36.996Z,38.44
2023-05-06T16:44:03.584Z,38.45
2023-05-06T16:46:30.338Z,38.45
2023-05-06T16:48:57.029Z,38.49
2023-05-06T16:51:24.216Z,38.50
2023-05-06T16:53:51.183Z,38.50
2023-05-06T16:56:17.948Z,38.50
2023-05-06T16:58:44.635Z,38.50
2023-05-06T17:01:11.768Z,38.51
2023-05-06T17:03:38.650Z,38.52
2023-05-06T17:06:05.556Z,38.53
2023-05-06T17:08:36.035Z,38.54
2023-05-06T17:11:05.351Z,38.54
2023-05-06T17:13:32.377Z,38.55
2023-05-06T17:15:59.048Z,38.57
2023-05-06T17:18:25.718Z,38.59
2023-05-06T17:20:56.533Z,38.59
2023-05-06T17:23:24.038Z,38.60
2023-05-06T17:25:51.007Z,38.61
2023-05-06T17:28:18.891Z,38.64
2023-05-06T17:30:46.014Z,38.66
2023-05-06T17:33:12.959Z,38.67
2023-05-06T17:35:39.706Z,38.71
2023-05-06T17:38:06.438Z,38.73
2023-05-06T17:40:33.183Z,38.73
2023-05-06T17:42:59.822Z,38.75
2023-05-06T17:45:28.356Z,38.79
2023-05-06T17:47:56.466Z,38.81
2023-05-06T17:50:23.317Z,38.84
2023-05-06T17:52:52.306Z,38.88
2023-05-06T17:55:21.499Z,38.91
2023-05-06T17:57:48.665Z,38.92
2023-05-06T18:00:16.602Z,38.96
2023-05-06T18:02:43.876Z,38.99
2023-05-06T18:05:11.428Z,39.06
2023-05-06T18:07:38.328Z,39.11
2023-05-06T18:10:05.777Z,39.16
2023-05-06T18:12:32.393Z,39.21
2023-05-06T18:14:59.079Z,39.29
2023-05-06T18:17:25.753Z,39.33
2023-05-06T18:19:52.778Z,39.40
2023-05-06T18:22:19.382Z,39.46
2023-05-06T18:24:46.136Z,39.51
2023-05-06T18:27:13.116Z,39.55
2023-05-06T18:29:41.308Z,39.63
2023-05-06T18:32:08.324Z,39.69
2023-05-06T18:34:35.233Z,39.72
2023-05-06T18:37:02.157Z,39.77
2023-05-06T18:39:28.792Z,39.83
2023-05-06T18:41:55.436Z,39.86
2023-05-06T18:44:22.062Z,39.90
2023-05-06T18:46:48.747Z,39.97
2023-05-06T18:49:15.455Z,40.07
2023-05-06T18:51:42.034Z,40.15
2023-05-06T18:54:08.630Z,40.21
2023-05-06T18:56:36.659Z,40.26
2023-05-06T18:59:03.382Z,40.33
2023-05-06T19:01:30.123Z,40.38
2023-05-06T19:03:56.929Z,40.42
2023-05-06T19:06:23.618Z,40.51
2023-05-06T19:08:50.551Z,40.58
2023-05-06T19:11:19.109Z,40.58
2023-05-06T19:13:46.315Z,40.82
2023-05-06T19:16:13.631Z,41.21
2023-05-06T19:18:40.581Z,41.28
2023-05-06T19:21:09.736Z,41.09
2023-05-06T19:23:36.389Z,41.30
2023-05-06T19:26:04.401Z,41.36
2023-05-06T19:28:31.101Z,41.42
2023-05-06T19:30:57.854Z,41.43
2023-05-06T19:33:24.631Z,41.49
2023-05-06T19:35:51.647Z,41.46
2023-05-06T19:38:18.330Z,41.44
2023-05-06T19:40:45.000Z,41.39
2023-05-06T19:43:11.804Z,41.47
2023-05-06T19:45:38.714Z,41.60
2023-05-06T19:48:05.887Z,41.59
2023-05-06T19:50:33.479Z,41.61
2023-05-06T19:53:00.227Z,41.57
2023-05-06T19:55:27.076Z,41.61
2023-05-06T19:57:56.953Z,41.59
2023-05-06T20:00:25.538Z,41.59
2023-05-06T20:02:52.299Z,41.58
2023-05-06T20:05:21.696Z,41.58
2023-05-06T20:07:48.297Z,41.63
2023-05-06T20:10:14.996Z,41.59
2023-05-06T20:12:41.691Z,41.72
2023-05-06T20:15:09.239Z,41.75
2023-05-06T20:17:36.056Z,41.71
2023-05-06T20:20:09.486Z,41.83
2023-05-06T20:22:37.224Z,41.69
2023-05-06T20:25:08.307Z,41.75
2023-05-06T20:27:35.081Z,41.73
2023-05-06T20:30:02.133Z,41.68
2023-05-06T20:32:28.963Z,41.66
2023-05-06T20:34:56.785Z,41.76
2023-05-06T20:37:23.391Z,41.76
2023-05-06T20:39:50.182Z,41.87
2023-05-06T20:42:16.798Z,41.80
2023-05-06T20:44:43.518Z,41.82
2023-05-06T20:47:12.529Z,41.83
2023-05-06T20:49:41.602Z,41.76
2023-05-06T20:52:11.141Z,41.73
2023-05-06T20:54:37.726Z,41.67
2023-05-06T20:57:04.601Z,41.63
2023-05-06T20:59:31.237Z,41.63
2023-05-06T21:01:57.971Z,41.62
2023-05-06T21:04:24.750Z,41.63
2023-05-06T21:06:51.392Z,41.69
2023-05-06T21:09:18.395Z,41.68
2023-05-06T21:11:45.278Z,41.73
2023-05-06T21:14:12.442Z,41.76
2023-05-06T21:16:41.867Z,41.74
2023-05-06T21:19:08.522Z,41.88
2023-05-06T21:21:35.116Z,41.90
2023-05-06T21:24:04.069Z,41.91
2023-05-06T21:26:30.936Z,41.92
2023-05-06T21:28:57.630Z,41.92
2023-05-06T21:31:25.138Z,41.99
2023-05-06T21:33:54.238Z,42.02
2023-05-06T21:36:20.869Z,41.97
2023-05-06T21:38:48.173Z,42.02
2023-05-06T21:41:14.893Z,42.03
2023-05-06T21:43:47.316Z,42.05
2023-05-06T21:46:13.952Z,41.99
2023-05-06T21:48:40.569Z,41.94
2023-05-06T21:51:07.230Z,41.97
2023-05-06T21:53:34.202Z,41.93
2023-05-06T21:56:00.810Z,41.85
2023-05-06T21:58:27.392Z,41.86
2023-05-06T22:00:53.973Z,41.86
2023-05-06T22:03:21.183Z,41.76
2023-05-06T22:05:50.486Z,41.77
2023-05-06T22:08:17.261Z,41.75
2023-05-06T22:10:43.894Z,41.75
2023-05-06T22:13:11.027Z,41.71
2023-05-06T22:15:37.725Z,41.66
2023-05-06T22:18:04.423Z,41.62
2023-05-06T22:20:31.183Z,41.57
2023-05-06T22:22:58.060Z,41.58
2023-05-06T22:25:24.822Z,41.54
2023-05-06T22:27:51.468Z,41.49
2023-05-06T22:30:18.106Z,41.49
2023-05-06T22:32:44.854Z,41.57
2023-05-06T22:35:13.932Z,41.49
2023-05-06T22:37:40.710Z,41.54
2023-05-06T22:40:07.895Z,41.56
2023-05-06T22:42:34.526Z,41.63
2023-05-06T22:45:01.649Z,41.65
2023-05-06T22:47:28.242Z,41.60
2023-05-06T22:49:54.854Z,41.69
2023-05-06T22:52:21.630Z,41.57
2023-05-06T22:54:48.230Z,41.63
2023-05-06T22:57:14.896Z,41.71
2023-05-06T22:59:41.562Z,41.68
2023-05-06T23:02:08.218Z,41.69
2023-05-06T23:04:36.935Z,41.67
2023-05-06T23:07:03.631Z,41.70
2023-05-06T23:09:30.344Z,41.67
2023-05-06T23:11:56.925Z,41.67
2023-05-06T23:14:24.066Z,41.71
2023-05-06T23:16:52.566Z,41.69
2023-05-06T23:19:21.510Z,41.74
2023-05-06T23:21:48.192Z,41.81
2023-05-06T23:24:14.910Z,41.77
2023-05-06T23:26:41.545Z,41.77
2023-05-06T23:29:08.206Z,41.82
2023-05-06T23:31:34.959Z,41.77
2023-05-06T23:34:01.752Z,41.78
2023-05-06T23:36:28.327Z,41.76
2023-05-06T23:38:55.144Z,41.79
2023-05-06T23:41:22.050Z,41.73
2023-05-06T23:43:48.766Z,41.77
2023-05-06T23:46:15.635Z,41.81
2023-05-06T23:48:42.356Z,41.84
2023-05-06T23:51:08.974Z,41.84
2023-05-06T23:53:36.186Z,41.75
2023-05-06T23:56:03.134Z,41.78
2023-05-06T23:58:29.794Z,41.72
